Time;durP1;ratioP1;P1;durP2;ratioP2;P2;SDS_P1;SDS_P2;PMS_P1;PMS_P2;Temp;Humidity;BMP_temperature;BMP_pressure;BME280_temperature;BME280_humidity;BME280_pressure;Samples;Min_cycle;Max_cycle;Signal;HPM_P1;HPM_P2
2021/12/28 00:00:26;;;;;;;0.10;0.10;;;1.70;99.90;226.50;231333.00;;;;5017127;28;20222;-75
2021/12/28 00:02:55;;;;;;;0.10;0.10;;;1.70;99.90;226.50;231333.00;;;;5017196;28;20196;-75
2021/12/28 00:05:25;;;;;;;0.10;0.10;;;1.70;99.90;226.50;231333.00;;;;5015001;28;20204;-75
2021/12/28 00:07:54;;;;;;;0.10;0.10;;;1.70;99.90;226.50;231333.00;;;;5017003;28;20253;-75
2021/12/28 00:10:22;;;;;;;0.10;0.10;;;1.60;99.90;226.50;231333.00;;;;5015504;28;20249;-75
2021/12/28 00:12:50;;;;;;;0.10;0.10;;;1.60;99.90;226.50;231333.00;;;;5015541;28;20199;-74
2021/12/28 00:15:46;;;;;;;0.10;0.10;;;1.70;99.90;226.50;231333.00;;;;5015951;28;20192;-74
2021/12/28 00:18:16;;;;;;;0.10;0.10;;;1.60;99.90;226.50;231333.00;;;;5016193;28;20191;-75
2021/12/28 00:20:49;;;;;;;0.10;0.10;;;1.60;99.90;226.50;231333.00;;;;5016116;28;20227;-75
2021/12/28 00:23:20;;;;;;;0.10;0.10;;;1.70;99.90;226.50;231333.00;;;;5016951;28;20188;-74
2021/12/28 00:25:51;;;;;;;0.10;0.10;;;1.60;99.90;226.50;231333.00;;;;5016582;28;20295;-75
2021/12/28 00:28:21;;;;;;;0.10;0.10;;;1.60;99.90;226.50;231333.00;;;;5021824;28;20269;-74
2021/12/28 00:30:50;;;;;;;0.10;0.10;;;1.60;99.90;226.50;231333.00;;;;5023146;28;20289;-75
2021/12/28 00:33:22;;;;;;;0.10;0.10;;;1.60;99.90;226.50;231333.00;;;;5025159;28;20198;-75
2021/12/28 00:35:52;;;;;;;0.10;0.10;;;1.60;99.90;226.50;231333.00;;;;5003988;28;20246;-75
2021/12/28 00:38:22;;;;;;;0.10;0.10;;;1.60;99.90;226.50;231333.00;;;;5021163;28;20204;-75
2021/12/28 00:40:55;;;;;;;0.17;0.17;;;1.60;99.90;226.50;231333.00;;;;5020678;28;20215;-74
2021/12/28 00:43:24;;;;;;;0.10;0.10;;;1.60;99.90;226.50;231333.00;;;;5020358;28;20601;-75
2021/12/28 00:45:53;;;;;;;0.10;0.10;;;1.60;99.90;226.50;231333.00;;;;5021082;28;20609;-75
2021/12/28 00:48:22;;;;;;;0.20;0.20;;;1.60;99.90;226.50;231333.00;;;;5020781;28;20187;-75
2021/12/28 00:50:52;;;;;;;0.15;0.15;;;1.70;99.90;226.50;231333.00;;;;5019693;28;20216;-75
2021/12/28 00:53:20;;;;;;;0.10;0.10;;;1.70;99.90;226.50;231333.00;;;;5020038;28;20204;-75
2021/12/28 00:55:48;;;;;;;0.10;0.10;;;1.70;99.90;226.50;231333.00;;;;5019958;28;20195;-76
2021/12/28 00:58:16;;;;;;;0.10;0.10;;;1.70;99.90;226.50;231333.00;;;;5020643;28;20188;-76
2021/12/28 01:00:45;;;;;;;0.10;0.10;;;1.70;99.90;226.50;231333.00;;;;5020135;28;20258;-74
2021/12/28 01:03:15;;;;;;;0.10;0.10;;;1.70;99.90;226.50;231333.00;;;;5015052;28;20696;-75
2021/12/28 01:05:46;;;;;;;0.10;0.10;;;1.70;99.90;226.50;231333.00;;;;5014691;28;20192;-75
2021/12/28 01:08:16;;;;;;;0.13;0.13;;;1.70;99.90;226.50;231333.00;;;;5015111;28;20200;-74
2021/12/28 01:10:48;;;;;;;0.10;0.10;;;1.70;99.90;226.50;231333.00;;;;5015110;28;20219;-74
2021/12/28 01:13:19;;;;;;;0.15;0.15;;;1.70;99.90;226.50;231333.00;;;;5014816;28;20254;-74
2021/12/28 01:15:48;;;;;;;0.10;0.10;;;1.70;99.90;226.50;231333.00;;;;5014757;28;20191;-76
2021/12/28 01:18:17;;;;;;;0.10;0.10;;;1.70;99.90;226.50;231333.00;;;;5014822;28;20258;-74
2021/12/28 01:20:46;;;;;;;0.10;0.10;;;1.80;99.90;226.50;231333.00;;;;5014647;28;20216;-74
2021/12/28 01:23:15;;;;;;;0.10;0.10;;;1.70;99.90;226.50;231333.00;;;;5014728;28;20277;-74
2021/12/28 01:25:43;;;;;;;0.10;0.10;;;1.70;99.90;226.50;231333.00;;;;5014535;28;20266;-74
2021/12/28 01:28:12;;;;;;;0.10;0.10;;;1.70;99.90;226.50;231333.00;;;;5014722;28;20188;-76
2021/12/28 01:30:41;;;;;;;0.10;0.10;;;1.70;99.90;226.50;159072.00;;;;5014867;28;20701;-74
2021/12/28 01:33:10;;;;;;;0.10;0.10;;;1.60;99.90;226.50;231333.00;;;;5014859;28;20230;-74
2021/12/28 01:35:39;;;;;;;0.10;0.10;;;1.70;99.90;226.50;231333.00;;;;5014799;28;20254;-75
2021/12/28 01:38:08;;;;;;;0.10;0.10;;;1.70;99.90;226.50;231333.00;;;;5015303;28;20657;-74
2021/12/28 01:40:41;;;;;;;0.10;0.10;;;1.70;99.90;226.50;231333.00;;;;5014198;28;20269;-74
2021/12/28 01:43:12;;;;;;;0.20;0.20;;;1.70;99.90;226.50;231333.00;;;;5014644;28;20219;-74
2021/12/28 01:45:47;;;;;;;0.10;0.10;;;1.60;99.90;226.50;231333.00;;;;5014216;28;20219;-75
2021/12/28 01:48:20;;;;;;;0.10;0.10;;;1.70;99.90;226.50;231333.00;;;;5014556;28;20472;-74
2021/12/28 01:50:50;;;;;;;0.10;0.10;;;1.60;99.90;226.50;231333.00;;;;5014450;28;20219;-75
2021/12/28 01:53:20;;;;;;;0.10;0.10;;;1.60;99.90;226.50;231333.00;;;;5014097;28;20258;-74
2021/12/28 01:55:52;;;;;;;0.10;0.10;;;1.70;99.90;226.50;231333.00;;;;5016842;28;20188;-74
2021/12/28 01:58:20;;;;;;;0.10;0.10;;;1.70;99.90;226.50;231333.00;;;;5010668;28;20645;-74
2021/12/28 02:00:52;;;;;;;0.10;0.10;;;1.70;99.90;226.50;231333.00;;;;5015658;28;20645;-75
2021/12/28 02:03:23;;;;;;;0.10;0.10;;;1.70;99.90;226.50;231333.00;;;;5018393;28;20314;-76
2021/12/28 02:05:53;;;;;;;0.10;0.10;;;1.70;99.90;226.50;231333.00;;;;5013703;28;20251;-75
2021/12/28 02:08:24;;;;;;;0.10;0.10;;;1.80;99.90;226.50;231333.00;;;;5000514;28;20258;-75
2021/12/28 02:10:56;;;;;;;0.10;0.10;;;1.70;99.90;226.50;231333.00;;;;5000201;28;20208;-74
2021/12/28 02:13:26;;;;;;;0.10;0.10;;;1.70;99.90;226.50;231333.00;;;;4995660;28;20752;-74
2021/12/28 02:15:57;;;;;;;0.10;0.10;;;1.70;99.90;226.50;231333.00;;;;4993915;28;20196;-75
2021/12/28 02:18:28;;;;;;;0.10;0.10;;;1.80;99.90;226.50;231333.00;;;;4993987;28;20200;-75
2021/12/28 02:21:01;;;;;;;0.10;0.10;;;1.80;99.90;226.50;231333.00;;;;4994128;28;20216;-74
2021/12/28 02:23:29;;;;;;;0.10;0.10;;;1.80;99.90;226.50;231333.00;;;;4992473;28;20287;-75
2021/12/28 02:25:57;;;;;;;0.10;0.10;;;1.80;99.90;226.50;231333.00;;;;4993666;28;20247;-75
2021/12/28 02:28:26;;;;;;;0.10;0.10;;;1.80;99.90;226.50;231333.00;;;;4993756;28;20188;-74
2021/12/28 02:30:58;;;;;;;0.10;0.10;;;1.80;99.90;226.50;231333.00;;;;4993702;28;20251;-75
2021/12/28 02:33:27;;;;;;;0.10;0.10;;;1.80;99.90;226.50;231333.00;;;;4993763;28;20200;-74
2021/12/28 02:36:01;;;;;;;0.10;0.10;;;1.80;99.90;226.50;231333.00;;;;4993541;28;20200;-76
2021/12/28 02:38:31;;;;;;;0.20;0.20;;;1.70;99.90;226.50;231333.00;;;;4976264;28;20191;-74
2021/12/28 02:41:00;;;;;;;0.13;0.13;;;1.80;99.90;226.50;231333.00;;;;4993864;28;20209;-75
2021/12/28 02:43:28;;;;;;;0.10;0.10;;;1.80;99.90;226.50;231333.00;;;;4993331;28;20224;-75
2021/12/28 02:46:02;;;;;;;0.10;0.10;;;1.80;99.90;226.50;231333.00;;;;4993459;28;20193;-75
2021/12/28 02:48:30;;;;;;;0.10;0.10;;;1.80;99.90;226.50;231333.00;;;;4993315;28;20220;-74
2021/12/28 02:51:05;;;;;;;0.20;0.20;;;1.80;99.90;226.50;231333.00;;;;4993479;28;20216;-75
2021/12/28 02:53:34;;;;;;;0.10;0.10;;;1.90;99.90;226.50;231333.00;;;;4992233;28;20250;-74
2021/12/28 02:56:04;;;;;;;0.20;0.20;;;1.80;99.90;226.50;231333.00;;;;4993403;28;20193;-75
2021/12/28 02:58:38;;;;;;;0.10;0.10;;;1.80;99.90;226.50;231333.00;;;;4993601;28;20239;-76
2021/12/28 03:01:12;;;;;;;0.10;0.10;;;1.80;99.90;226.50;231333.00;;;;4993013;28;20224;-76
2021/12/28 03:03:41;;;;;;;0.10;0.10;;;1.80;99.90;226.50;231333.00;;;;4993045;28;20227;-76
2021/12/28 03:06:14;;;;;;;0.10;0.10;;;1.80;99.90;226.50;231333.00;;;;4993162;28;20620;-76
2021/12/28 03:08:48;;;;;;;0.10;0.10;;;1.80;99.90;226.50;231333.00;;;;4992885;28;20259;-76
2021/12/28 03:11:16;;;;;;;0.10;0.10;;;1.80;99.90;226.50;231333.00;;;;4992900;28;20419;-76
2021/12/28 03:13:47;;;;;;;0.10;0.10;;;1.80;99.90;226.50;231333.00;;;;4993005;28;20235;-76
2021/12/28 03:16:18;;;;;;;0.10;0.10;;;1.80;99.90;226.50;231333.00;;;;4992815;28;20580;-76
2021/12/28 03:18:47;;;;;;;0.10;0.10;;;1.80;99.90;226.50;231333.00;;;;4992847;28;20201;-76
2021/12/28 03:21:19;;;;;;;0.13;0.13;;;1.80;99.90;226.50;231333.00;;;;4992727;28;20618;-76
2021/12/28 03:23:48;;;;;;;0.20;0.20;;;1.80;99.90;226.50;231333.00;;;;4992794;28;20274;-76
2021/12/28 03:26:16;;;;;;;0.10;0.10;;;1.80;99.90;226.50;231333.00;;;;4992468;28;20189;-75
2021/12/28 03:28:46;;;;;;;0.10;0.10;;;1.70;99.90;226.50;231333.00;;;;4992685;28;20224;-76
2021/12/28 03:31:20;;;;;;;0.10;0.10;;;1.80;99.90;226.50;231333.00;;;;4992764;28;20220;-76
2021/12/28 03:33:53;;;;;;;0.17;0.17;;;1.80;99.90;226.50;231333.00;;;;4992580;28;20201;-76
2021/12/28 03:36:25;;;;;;;0.20;0.20;;;1.70;99.90;226.50;231333.00;;;;4992386;28;20196;-75
2021/12/28 03:38:53;;;;;;;0.10;0.10;;;1.70;99.90;226.50;231333.00;;;;4992637;28;20188;-76
2021/12/28 03:41:24;;;;;;;0.10;0.10;;;1.70;99.90;226.50;231333.00;;;;4992352;28;20415;-76
2021/12/28 03:43:55;;;;;;;0.10;0.10;;;1.70;99.90;226.50;231333.00;;;;4992386;28;20224;-76
2021/12/28 03:46:26;;;;;;;0.10;0.10;;;1.70;99.90;226.50;231333.00;;;;4992175;28;20254;-76
2021/12/28 03:48:55;;;;;;;0.10;0.10;;;1.70;99.90;226.50;231333.00;;;;4992547;28;20199;-76
2021/12/28 03:51:25;;;;;;;0.10;0.10;;;1.80;99.90;226.50;231333.00;;;;4992356;28;20212;-76
2021/12/28 03:53:53;;;;;;;0.10;0.10;;;1.80;99.90;226.50;231333.00;;;;4992320;28;20204;-76
2021/12/28 03:56:22;;;;;;;0.10;0.10;;;1.80;99.90;226.50;231333.00;;;;4992342;28;20625;-76
2021/12/28 03:58:52;;;;;;;0.10;0.10;;;1.80;99.90;226.50;231333.00;;;;4995149;28;20254;-76
2021/12/28 04:01:25;;;;;;;0.10;0.10;;;1.80;99.90;226.50;231333.00;;;;4999990;28;20636;-75
2021/12/28 04:03:53;;;;;;;0.10;0.10;;;1.80;99.90;226.50;231333.00;;;;4992295;28;20271;-76
2021/12/28 04:06:23;;;;;;;0.10;0.10;;;1.90;99.90;226.50;231333.00;;;;4997025;28;20204;-75
2021/12/28 04:08:52;;;;;;;0.10;0.10;;;1.90;99.90;226.50;231333.00;;;;5016180;28;20207;-76
2021/12/28 04:11:28;;;;;;;0.10;0.10;;;1.90;99.90;226.50;231333.00;;;;5015975;28;20495;-76
2021/12/28 04:14:05;;;;;;;0.10;0.10;;;1.90;99.90;226.50;231333.00;;;;5016002;28;20191;-75
2021/12/28 04:16:35;;;;;;;0.10;0.10;;;1.80;99.90;226.50;231333.00;;;;5015691;28;20250;-76
2021/12/28 04:19:05;;;;;;;0.10;0.10;;;1.80;99.90;226.50;231333.00;;;;5015740;28;20202;-76
2021/12/28 04:21:36;;;;;;;0.10;0.10;;;1.80;99.90;226.50;231333.00;;;;5015649;28;20274;-75
2021/12/28 04:24:05;;;;;;;0.10;0.10;;;1.80;99.90;226.50;231333.00;;;;5015867;28;20219;-75
2021/12/28 04:26:33;;;;;;;0.10;0.10;;;1.90;99.90;226.50;159282.00;;;;5015437;28;20195;-76
2021/12/28 04:29:01;;;;;;;0.10;0.10;;;1.90;99.90;226.50;231333.00;;;;5015525;28;20208;-75
2021/12/28 04:31:29;;;;;;;0.10;0.10;;;1.90;99.90;226.50;231333.00;;;;5015457;28;20546;-74
2021/12/28 04:33:57;;;;;;;0.10;0.10;;;2.00;99.90;226.50;231333.00;;;;5015406;28;20208;-74
2021/12/28 04:36:29;;;;;;;0.20;0.20;;;1.90;99.90;226.50;231333.00;;;;5014983;28;20657;-74
2021/12/28 04:38:59;;;;;;;0.10;0.10;;;2.00;99.90;226.50;231333.00;;;;5015546;28;20192;-74
2021/12/28 04:41:27;;;;;;;0.10;0.10;;;2.00;99.90;226.50;231333.00;;;;5015278;28;20262;-75
2021/12/28 04:43:55;;;;;;;0.10;0.10;;;2.00;99.90;226.50;231333.00;;;;5015284;28;20223;-75
2021/12/28 04:46:23;;;;;;;0.10;0.10;;;2.00;99.90;226.50;231333.00;;;;5015031;28;20188;-74
2021/12/28 04:48:51;;;;;;;0.10;0.10;;;2.10;99.90;226.50;231333.00;;;;5015269;28;20599;-75
2021/12/28 04:51:19;;;;;;;0.10;0.10;;;2.10;99.90;226.50;231333.00;;;;5014888;28;20246;-74
2021/12/28 04:53:48;;;;;;;0.10;0.10;;;2.10;99.90;226.50;231333.00;;;;5015168;28;20200;-74
2021/12/28 04:56:17;;;;;;;0.10;0.10;;;2.10;99.90;226.50;231333.00;;;;5014892;28;20242;-74
2021/12/28 04:58:45;;;;;;;0.10;0.10;;;2.10;99.90;226.50;231333.00;;;;5014994;28;20724;-74
2021/12/28 05:01:14;;;;;;;0.10;0.10;;;2.10;99.90;226.50;231333.00;;;;5015002;28;20224;-75
2021/12/28 05:03:42;;;;;;;0.10;0.10;;;2.10;99.90;226.50;231333.00;;;;5014707;28;20570;-74
2021/12/28 05:06:10;;;;;;;0.10;0.10;;;2.10;99.90;226.50;231333.00;;;;5014663;28;20575;-74
2021/12/28 05:08:42;;;;;;;0.10;0.10;;;2.10;99.90;226.50;231333.00;;;;5014460;28;20255;-74
2021/12/28 05:11:09;;;;;;;0.10;0.10;;;2.10;99.90;226.50;231333.00;;;;5014793;28;20215;-74
2021/12/28 05:13:39;;;;;;;0.10;0.10;;;2.20;99.90;226.50;231333.00;;;;5014629;28;20624;-74
2021/12/28 05:16:07;;;;;;;0.10;0.10;;;2.20;99.90;226.50;231333.00;;;;5013502;28;20249;-74
2021/12/28 05:18:35;;;;;;;0.10;0.10;;;2.20;99.90;226.50;231333.00;;;;5016459;28;20204;-75
2021/12/28 05:21:03;;;;;;;0.10;0.10;;;2.30;99.90;226.50;231333.00;;;;5015502;28;20215;-74
2021/12/28 05:23:31;;;;;;;0.10;0.10;;;2.30;99.90;226.50;231333.00;;;;5018035;28;20549;-74
2021/12/28 05:25:59;;;;;;;0.10;0.10;;;2.30;99.90;226.50;231333.00;;;;5020123;28;20207;-74
2021/12/28 05:28:27;;;;;;;0.10;0.10;;;2.30;99.90;226.50;231333.00;;;;5019857;28;20204;-74
2021/12/28 05:30:57;;;;;;;0.10;0.10;;;2.30;99.90;226.50;231333.00;;;;5019729;28;20211;-74
2021/12/28 05:33:25;;;;;;;0.10;0.10;;;2.40;99.90;226.50;231333.00;;;;5018907;28;20192;-74
2021/12/28 05:35:52;;;;;;;0.10;0.10;;;2.40;99.90;226.50;231333.00;;;;5014936;28;20242;-74
2021/12/28 05:38:21;;;;;;;0.10;0.10;;;2.40;99.90;226.50;231333.00;;;;5014460;28;20235;-74
2021/12/28 05:40:49;;;;;;;0.10;0.10;;;2.40;99.90;226.50;231333.00;;;;5015682;28;20242;-74
2021/12/28 05:43:17;;;;;;;0.10;0.10;;;2.40;99.90;226.50;231333.00;;;;5017043;28;20196;-75
2021/12/28 05:45:45;;;;;;;0.10;0.10;;;2.40;99.90;226.50;231333.00;;;;5015919;28;20282;-74
2021/12/28 05:48:14;;;;;;;0.10;0.10;;;2.50;99.90;226.50;231333.00;;;;5015054;28;20630;-75
2021/12/28 05:50:43;;;;;;;0.10;0.10;;;2.50;99.90;226.50;231333.00;;;;5014302;28;20223;-74
2021/12/28 05:53:11;;;;;;;0.10;0.10;;;2.50;99.90;226.50;231333.00;;;;5014749;28;20477;-74
2021/12/28 05:55:38;;;;;;;0.10;0.10;;;2.50;99.90;226.50;231333.00;;;;5013951;28;20195;-74
2021/12/28 05:58:07;;;;;;;0.10;0.10;;;2.50;99.90;226.50;231333.00;;;;5014117;28;20608;-74
2021/12/28 06:00:35;;;;;;;0.10;0.10;;;2.50;99.90;226.50;231333.00;;;;5013786;28;20273;-74
2021/12/28 06:03:03;;;;;;;0.10;0.10;;;2.50;99.90;226.50;231333.00;;;;5014003;28;20628;-74
2021/12/28 06:05:33;;;;;;;0.10;0.10;;;2.40;99.90;226.50;231333.00;;;;5013374;28;20267;-75
2021/12/28 06:08:01;;;;;;;0.10;0.10;;;2.40;99.90;226.50;231333.00;;;;5013868;28;20192;-74
2021/12/28 06:10:37;;;;;;;0.10;0.10;;;2.40;99.90;226.50;231333.00;;;;5013724;28;20708;-74
2021/12/28 06:13:05;;;;;;;0.10;0.10;;;2.30;99.90;226.50;231333.00;;;;5013672;28;20187;-74
2021/12/28 06:15:34;;;;;;;0.10;0.10;;;2.30;99.90;226.50;231333.00;;;;5013369;28;20200;-74
2021/12/28 06:18:02;;;;;;;0.10;0.10;;;2.30;99.90;226.50;231333.00;;;;5013784;28;20234;-74
2021/12/28 06:20:30;;;;;;;0.10;0.10;;;2.20;99.90;226.50;231333.00;;;;5013378;28;20211;-74
2021/12/28 06:22:59;;;;;;;0.10;0.10;;;2.20;99.90;226.50;231333.00;;;;5013578;28;20603;-74
2021/12/28 06:25:27;;;;;;;0.17;0.17;;;2.20;99.90;226.50;231333.00;;;;5013247;28;20712;-74
2021/12/28 06:27:55;;;;;;;0.10;0.10;;;2.10;99.90;226.50;231333.00;;;;5013569;28;20196;-74
2021/12/28 06:30:23;;;;;;;0.10;0.10;;;2.10;99.90;226.50;231333.00;;;;5014776;28;20303;-74
2021/12/28 06:32:51;;;;;;;0.10;0.10;;;2.10;99.90;226.50;231333.00;;;;5013524;28;20196;-74
2021/12/28 06:35:19;;;;;;;0.10;0.10;;;2.10;99.90;226.50;231333.00;;;;5013300;28;20195;-74
2021/12/28 06:37:47;;;;;;;0.10;0.10;;;2.10;99.90;226.50;231333.00;;;;5011783;28;20539;-74
2021/12/28 06:40:16;;;;;;;0.10;0.10;;;2.10;99.90;226.50;231333.00;;;;5013357;28;20719;-74
2021/12/28 06:42:44;;;;;;;0.10;0.10;;;2.10;99.90;226.50;231333.00;;;;5013433;28;20199;-74
2021/12/28 06:45:12;;;;;;;0.10;0.10;;;2.00;99.90;226.50;231333.00;;;;5013367;28;20215;-74
2021/12/28 06:47:40;;;;;;;0.10;0.10;;;2.10;99.90;226.50;231333.00;;;;5012937;28;20192;-74
2021/12/28 06:50:10;;;;;;;0.10;0.10;;;2.10;99.90;226.50;231333.00;;;;5012027;28;20253;-74
2021/12/28 06:52:39;;;;;;;0.10;0.10;;;2.10;99.90;226.50;231333.00;;;;5012954;28;20250;-74
2021/12/28 06:55:10;;;;;;;0.20;0.20;;;2.10;99.90;226.50;231333.00;;;;5013000;28;20200;-74
2021/12/28 06:57:40;;;;;;;0.10;0.10;;;2.10;99.90;226.50;231333.00;;;;5012846;28;20202;-74
2021/12/28 07:00:13;;;;;;;0.10;0.10;;;2.10;99.90;226.50;231333.00;;;;5013129;28;20657;-74
2021/12/28 07:02:41;;;;;;;0.10;0.10;;;2.10;99.90;226.50;231333.00;;;;5017656;28;20321;-75
2021/12/28 07:05:11;;;;;;;0.10;0.10;;;2.10;99.90;226.50;231333.00;;;;5017226;28;20219;-74
2021/12/28 07:07:40;;;;;;;0.10;0.10;;;2.10;99.90;226.50;231333.00;;;;5016921;28;20214;-75
2021/12/28 07:10:10;;;;;;;0.10;0.10;;;2.10;99.90;226.50;231333.00;;;;5017711;28;20192;-74
2021/12/28 07:12:40;;;;;;;0.10;0.10;;;2.10;99.90;226.50;231333.00;;;;5017894;28;20581;-75
2021/12/28 07:15:09;;;;;;;0.20;0.20;;;2.10;99.90;226.50;231333.00;;;;5017782;28;20199;-74
2021/12/28 07:17:37;;;;;;;0.10;0.10;;;2.20;99.90;226.50;159268.00;;;;5017657;28;20199;-75
2021/12/28 07:20:08;;;;;;;0.10;0.10;;;2.20;99.90;226.50;231333.00;;;;5013148;28;20207;-73
2021/12/28 07:22:38;;;;;;;0.10;0.10;;;2.20;99.90;226.50;231333.00;;;;5012562;28;20681;-73
2021/12/28 07:25:08;;;;;;;0.10;0.10;;;2.20;99.90;226.50;231333.00;;;;5012938;28;20646;-72
2021/12/28 07:27:36;;;;;;;0.10;0.10;;;2.20;99.90;226.50;231333.00;;;;5012269;28;20616;-72
2021/12/28 07:30:11;;;;;;;0.10;0.10;;;2.30;99.90;226.50;231333.00;;;;5012652;28;20234;-73
2021/12/28 07:32:41;;;;;;;0.10;0.10;;;2.20;99.90;226.50;231333.00;;;;5012556;28;20191;-73
2021/12/28 07:35:12;;;;;;;0.10;0.10;;;2.30;99.90;226.50;231333.00;;;;5012541;28;20258;-72
2021/12/28 07:37:40;;;;;;;0.10;0.10;;;2.30;99.90;226.50;231333.00;;;;5012353;28;20246;-73
2021/12/28 07:40:11;;;;;;;0.10;0.10;;;2.40;99.90;226.50;231333.00;;;;5011775;28;20262;-73
2021/12/28 07:42:40;;;;;;;0.10;0.10;;;2.40;99.90;226.50;231333.00;;;;5012236;28;20600;-73
2021/12/28 07:45:13;;;;;;;0.10;0.10;;;2.40;99.90;226.50;231333.00;;;;5012250;28;20220;-73
2021/12/28 07:47:43;;;;;;;0.10;0.10;;;2.40;99.90;226.50;231333.00;;;;5010966;28;20233;-73
2021/12/28 07:50:14;;;;;;;0.10;0.10;;;2.50;99.90;226.50;231333.00;;;;5012286;28;20575;-75
2021/12/28 07:52:43;;;;;;;0.10;0.10;;;2.50;99.90;226.50;231333.00;;;;5012251;28;20191;-75
2021/12/28 07:55:13;;;;;;;0.10;0.10;;;2.50;99.90;226.50;231333.00;;;;5012021;28;20533;-75
2021/12/28 07:57:42;;;;;;;0.10;0.10;;;2.50;99.90;226.50;231333.00;;;;5010656;28;20207;-75
2021/12/28 08:00:17;;;;;;;0.10;0.10;;;2.50;99.90;226.50;231333.00;;;;5012135;28;20608;-75
2021/12/28 08:02:47;;;;;;;0.10;0.10;;;2.50;99.90;226.50;231333.00;;;;5012342;28;20199;-75
2021/12/28 08:05:17;;;;;;;0.10;0.10;;;2.50;99.90;226.50;231333.00;;;;5012322;28;20227;-75
2021/12/28 08:07:45;;;;;;;0.10;0.10;;;2.50;99.90;226.50;231333.00;;;;5013009;28;20254;-74
2021/12/28 08:10:17;;;;;;;0.10;0.10;;;2.60;99.90;226.50;231333.00;;;;5019194;28;20196;-74
2021/12/28 08:12:47;;;;;;;0.10;0.10;;;2.60;99.90;226.50;231333.00;;;;5016289;28;20195;-74
2021/12/28 08:15:17;;;;;;;0.10;0.10;;;2.60;99.90;226.50;231333.00;;;;5020531;28;20606;-74
2021/12/28 08:17:45;;;;;;;0.10;0.10;;;2.60;99.90;226.50;231333.00;;;;5013203;28;20669;-74
2021/12/28 08:20:16;;;;;;;0.10;0.10;;;2.60;99.90;226.50;231333.00;;;;5012994;28;20660;-74
2021/12/28 08:22:45;;;;;;;0.10;0.10;;;2.50;99.90;226.50;231333.00;;;;5012720;28;20191;-74
2021/12/28 08:25:18;;;;;;;0.10;0.10;;;2.50;99.90;226.50;231333.00;;;;5013608;28;20219;-75
2021/12/28 08:27:47;;;;;;;0.10;0.10;;;2.40;99.90;226.50;231333.00;;;;5011679;28;20192;-74
2021/12/28 08:30:18;;;;;;;0.10;0.10;;;2.40;99.90;226.50;231333.00;;;;5011773;28;20200;-72
2021/12/28 08:32:48;;;;;;;0.10;0.10;;;2.40;99.90;226.50;231333.00;;;;5011911;28;20225;-72
2021/12/28 08:35:18;;;;;;;0.10;0.10;;;2.40;99.90;226.50;231333.00;;;;5012159;28;20732;-75
2021/12/28 08:37:46;;;;;;;0.10;0.10;;;2.40;99.90;226.50;231333.00;;;;5016191;28;20246;-75
2021/12/28 08:40:17;;;;;;;0.10;0.10;;;2.30;99.90;226.50;231333.00;;;;5016720;28;20192;-75
2021/12/28 08:42:45;;;;;;;0.10;0.10;;;2.30;99.90;226.50;231333.00;;;;5016106;28;20211;-75
2021/12/28 08:45:15;;;;;;;0.10;0.10;;;2.30;99.90;226.50;231333.00;;;;5015371;28;20250;-74
2021/12/28 08:47:46;;;;;;;0.10;0.10;;;2.30;99.90;226.50;231333.00;;;;5012097;28;20246;-73
2021/12/28 08:50:15;;;;;;;0.10;0.10;;;2.30;99.90;226.50;231333.00;;;;5012655;28;20219;-73
2021/12/28 08:52:43;;;;;;;0.10;0.10;;;2.30;99.90;226.50;231333.00;;;;5015762;28;20198;-74
2021/12/28 08:55:21;;;;;;;0.10;0.10;;;2.30;99.90;226.50;231333.00;;;;5015491;28;20564;-74
2021/12/28 08:57:50;;;;;;;0.10;0.10;;;2.30;99.90;226.50;231333.00;;;;5019038;28;20187;-75
2021/12/28 09:00:25;;;;;;;0.10;0.10;;;2.30;99.90;226.50;231333.00;;;;5017511;28;20265;-75
2021/12/28 09:02:55;;;;;;;0.10;0.10;;;2.40;99.90;226.50;231333.00;;;;5019480;28;20195;-74
2021/12/28 09:05:26;;;;;;;0.10;0.10;;;2.40;99.90;226.50;231333.00;;;;5020831;28;20203;-74
2021/12/28 09:07:56;;;;;;;0.10;0.10;;;2.30;99.90;226.50;231333.00;;;;5020468;28;20653;-74
2021/12/28 09:10:26;;;;;;;0.10;0.10;;;2.30;99.90;226.50;231333.00;;;;5017967;28;20200;-74
2021/12/28 09:12:54;;;;;;;0.10;0.10;;;2.30;99.90;226.50;231333.00;;;;5014945;28;20242;-74
2021/12/28 09:15:24;;;;;;;0.10;0.10;;;2.30;99.90;226.50;231333.00;;;;5014771;28;20665;-72
2021/12/28 09:17:52;;;;;;;0.10;0.10;;;2.30;99.90;226.50;231333.00;;;;5014979;28;20657;-74
2021/12/28 09:20:26;;;;;;;0.10;0.10;;;2.30;99.90;226.50;231333.00;;;;5014805;28;20680;-72
2021/12/28 09:23:07;;;;;;;0.10;0.10;;;2.30;99.90;226.50;231333.00;;;;5014915;28;20250;-72
2021/12/28 09:25:35;;;;;;;0.10;0.10;;;2.30;99.90;226.50;231333.00;;;;5014170;28;20284;-72
2021/12/28 09:28:04;;;;;;;0.10;0.10;;;2.30;99.90;226.50;231333.00;;;;5015918;28;20230;-72
2021/12/28 09:30:33;;;;;;;0.10;0.10;;;2.40;99.90;226.50;231333.00;;;;5007858;28;20295;-72
2021/12/28 09:33:01;;;;;;;0.10;0.10;;;2.40;99.90;226.50;231333.00;;;;5003601;28;20231;-72
2021/12/28 09:35:30;;;;;;;0.10;0.10;;;2.50;99.90;226.50;231333.00;;;;5009743;28;20227;-71
2021/12/28 09:37:58;;;;;;;0.10;0.10;;;2.50;99.90;226.50;231333.00;;;;5014134;28;20238;-72
2021/12/28 09:40:29;;;;;;;0.10;0.10;;;2.50;99.90;226.50;231333.00;;;;4994988;28;20296;-72
2021/12/28 09:42:57;;;;;;;0.10;0.10;;;2.50;99.90;226.50;231333.00;;;;4995013;28;20192;-71
2021/12/28 09:45:27;;;;;;;0.10;0.10;;;2.60;99.90;226.50;231333.00;;;;4994807;28;20744;-74
2021/12/28 09:47:57;;;;;;;0.10;0.10;;;2.60;99.90;226.50;231333.00;;;;4996154;28;20267;-73
2021/12/28 09:50:27;;;;;;;0.10;0.10;;;2.70;99.90;226.50;231333.00;;;;4978346;28;20661;-72
2021/12/28 09:52:55;;;;;;;0.10;0.10;;;2.60;99.90;226.50;231333.00;;;;4995089;28;20251;-72
2021/12/28 09:55:29;;;;;;;0.10;0.10;;;2.70;99.90;226.50;231333.00;;;;4994493;28;20456;-75
2021/12/28 09:57:59;;;;;;;0.10;0.10;;;2.70;99.90;226.50;231333.00;;;;4995258;28;20239;-71
2021/12/28 10:00:28;;;;;;;0.10;0.10;;;2.70;99.90;226.50;231333.00;;;;4994432;28;20196;-72
2021/12/28 10:03:15;;;;;;;0.10;0.10;;;2.70;99.90;226.50;231333.00;;;;4994065;28;20287;-72
2021/12/28 10:05:44;;;;;;;0.10;0.10;;;2.70;99.90;226.50;231333.00;;;;4995298;28;20201;-74
2021/12/28 10:08:13;;;;;;;0.10;0.10;;;2.70;99.90;226.50;231333.00;;;;4997864;28;20607;-73
2021/12/28 10:10:44;;;;;;;0.10;0.10;;;2.70;99.90;226.50;231333.00;;;;4994378;28;20224;-72
2021/12/28 10:13:21;;;;;;;0.10;0.10;;;2.70;99.90;226.50;231333.00;;;;4994411;28;20216;-73
2021/12/28 10:15:52;;;;;;;0.10;0.10;;;2.70;99.90;226.50;231333.00;;;;4994153;28;20188;-74
2021/12/28 10:18:22;;;;;;;0.10;0.10;;;2.80;99.90;226.50;231333.00;;;;4994127;28;20557;-74
2021/12/28 10:20:53;;;;;;;0.10;0.10;;;2.90;99.90;226.50;231333.00;;;;4994040;28;20752;-73
2021/12/28 10:23:25;;;;;;;0.10;0.10;;;2.90;99.90;226.50;231333.00;;;;4994079;28;20196;-74
2021/12/28 10:25:57;;;;;;;0.10;0.10;;;3.00;99.90;226.50;231333.00;;;;4993940;28;20730;-75
2021/12/28 10:28:31;;;;;;;0.10;0.10;;;3.00;99.90;226.50;231333.00;;;;4993790;28;20192;-74
2021/12/28 10:31:06;;;;;;;0.10;0.10;;;3.10;99.90;226.50;231333.00;;;;4993843;28;20216;-74
2021/12/28 10:33:38;;;;;;;0.10;0.10;;;3.30;99.90;226.50;231333.00;;;;4993755;28;20200;-74
2021/12/28 10:36:10;;;;;;;0.10;0.10;;;3.30;99.90;226.50;231333.00;;;;4993417;28;20193;-74
2021/12/28 10:38:42;;;;;;;0.10;0.10;;;3.40;99.90;226.50;231333.00;;;;4993631;28;20200;-74
2021/12/28 10:41:15;;;;;;;0.10;0.10;;;3.50;99.90;226.50;231333.00;;;;4993814;28;20216;-74
2021/12/28 10:43:48;;;;;;;0.10;0.10;;;3.60;99.90;226.50;231333.00;;;;4993970;28;20745;-74
2021/12/28 10:46:19;;;;;;;0.10;0.10;;;3.60;99.90;226.50;231333.00;;;;4993706;28;20200;-72
2021/12/28 10:48:52;;;;;;;0.10;0.10;;;3.70;99.90;226.50;231333.00;;;;4993980;28;20357;-72
2021/12/28 10:51:26;;;;;;;0.10;0.10;;;3.70;99.90;226.50;231333.00;;;;4993386;28;20213;-72
2021/12/28 10:54:06;;;;;;;0.10;0.10;;;3.60;99.90;226.50;231333.00;;;;4993957;28;20239;-73
2021/12/28 10:56:38;;;;;;;0.10;0.10;;;3.60;99.90;226.50;231333.00;;;;4993770;28;20188;-73
2021/12/28 10:59:09;;;;;;;0.10;0.10;;;3.60;99.90;226.50;231333.00;;;;4993956;28;20615;-72